Time;durP1;ratioP1;P1;durP2;ratioP2;P2;SDS_P1;SDS_P2;PMS_P1;PMS_P2;Temp;Humidity;BMP_temperature;BMP_pressure;BME280_temperature;BME280_humidity;BME280_pressure;Samples;Min_cycle;Max_cycle;Signal;HPM_P1;HPM_P2
2021/12/09 00:02:13;;;;;;;13.95;6.47;;;1.70;99.90;;;;;;5100073;28;20040;-51
2021/12/09 00:04:39;;;;;;;15.32;7.10;;;1.70;99.90;;;;;;5099440;28;20051;-52
2021/12/09 00:07:05;;;;;;;17.02;8.07;;;1.80;99.90;;;;;;5099686;28;20040;-51
2021/12/09 00:09:31;;;;;;;13.18;7.45;;;1.70;99.90;;;;;;5099216;28;20484;-49
2021/12/09 00:11:58;;;;;;;14.27;6.63;;;1.70;99.90;;;;;;5099593;28;20051;-49
2021/12/09 00:14:27;;;;;;;15.48;7.20;;;1.60;99.90;;;;;;5099783;28;20044;-51
2021/12/09 00:16:57;;;;;;;15.70;7.75;;;1.60;99.90;;;;;;5099011;28;20051;-49
2021/12/09 00:19:23;;;;;;;14.27;7.20;;;1.70;99.90;;;;;;5099618;28;20048;-51
2021/12/09 00:21:49;;;;;;;12.40;7.00;;;1.70;99.90;;;;;;5098674;28;20051;-49
2021/12/09 00:24:15;;;;;;;14.93;7.93;;;1.70;99.90;;;;;;5099470;28;20044;-50
2021/12/09 00:26:43;;;;;;;15.32;7.05;;;1.70;99.90;;;;;;5099282;28;20412;-52
2021/12/09 00:29:10;;;;;;;14.82;8.07;;;1.60;99.90;;;;;;5099146;28;20422;-49
2021/12/09 00:31:36;;;;;;;14.18;7.13;;;1.60;99.90;;;;;;5098253;28;20068;-52
2021/12/09 00:34:03;;;;;;;15.95;7.18;;;1.50;99.90;;;;;;5099027;28;20136;-52
2021/12/09 00:36:43;;;;;;;15.48;7.40;;;1.60;99.90;;;;;;5097945;28;20048;-52
2021/12/09 00:39:11;;;;;;;14.18;7.75;;;1.60;99.90;;;;;;5098718;28;20040;-52
2021/12/09 00:41:37;;;;;;;12.63;7.13;;;1.60;99.90;;;;;;5099054;28;20060;-50
2021/12/09 00:44:03;;;;;;;16.77;8.40;;;1.60;99.90;;;;;;5098819;28;20047;-49
2021/12/09 00:46:29;;;;;;;16.20;7.65;;;1.50;99.90;;;;;;5098751;28;20052;-52
2021/12/09 00:48:55;;;;;;;17.10;8.32;;;1.50;99.90;;;;;;5099286;28;20036;-49
2021/12/09 00:51:21;;;;;;;12.98;7.65;;;1.50;99.90;;;;;;5090593;28;20100;-52
2021/12/09 00:53:46;;;;;;;16.83;8.30;;;1.50;99.90;;;;;;5078531;28;20096;-50
2021/12/09 00:56:13;;;;;;;16.30;7.47;;;1.60;99.90;;;;;;5078194;28;20090;-51
2021/12/09 00:58:40;;;;;;;14.65;7.93;;;1.60;99.90;;;;;;5078702;28;20428;-49
2021/12/09 01:01:07;;;;;;;17.38;8.65;;;1.50;99.90;;;;;;5078566;28;20044;-51
2021/12/09 01:03:34;;;;;;;16.60;7.88;;;1.50;99.90;;;;;;5078183;28;20091;-48
2021/12/09 01:06:00;;;;;;;14.20;7.53;;;1.60;99.90;;;;;;5079024;28;20045;-50
2021/12/09 01:08:26;;;;;;;15.60;8.57;;;1.50;99.90;;;;;;5076599;28;20129;-49
2021/12/09 01:10:52;;;;;;;15.90;8.27;;;1.50;99.90;;;;;;5078603;28;20040;-49
2021/12/09 01:13:18;;;;;;;17.40;8.55;;;1.50;99.90;;;;;;5077621;28;20047;-49
2021/12/09 01:15:44;;;;;;;18.42;8.27;;;1.50;99.90;;;;;;5078258;28;20032;-52
2021/12/09 01:18:09;;;;;;;17.67;8.05;;;1.50;99.90;;;;;;5078344;28;20045;-52
2021/12/09 01:20:35;;;;;;;17.60;8.88;;;1.60;99.90;;;;;;5078158;28;20571;-53
2021/12/09 01:23:02;;;;;;;16.83;7.95;;;1.50;99.90;;;;;;5078868;28;20369;-52
2021/12/09 01:25:35;;;;;;;16.63;8.27;;;1.50;99.90;;;;;;5078202;28;20049;-52
2021/12/09 01:28:02;;;;;;;17.38;9.20;;;1.40;99.90;;;;;;5078374;28;20036;-51
2021/12/09 01:30:28;;;;;;;14.75;8.30;;;1.40;99.90;;;;;;5077674;28;20056;-50
2021/12/09 01:32:55;;;;;;;17.10;9.80;;;1.40;99.90;;;;;;5078120;28;20067;-52
2021/12/09 01:35:31;;;;;;;16.88;8.73;;;1.30;99.90;;;;;;5078187;28;20048;-52
2021/12/09 01:38:00;;;;;;;18.42;9.07;;;1.40;99.90;;;;;;5077787;28;20060;-50
2021/12/09 01:40:28;;;;;;;15.95;9.55;;;1.40;99.90;;;;;;5078390;28;20169;-49
2021/12/09 01:42:56;;;;;;;18.65;9.52;;;1.40;99.90;;;;;;5077308;28;20139;-51
2021/12/09 01:45:22;;;;;;;19.45;9.15;;;1.40;99.90;;;;;;5078054;28;20059;-51
2021/12/09 01:47:48;;;;;;;19.98;9.20;;;1.40;99.90;;;;;;5080601;28;20135;-50
2021/12/09 01:50:14;;;;;;;21.90;11.40;;;1.40;99.90;;;;;;5082057;28;20045;-51
2021/12/09 01:52:40;;;;;;;20.00;10.75;;;1.40;99.90;;;;;;5101030;28;20051;-51
2021/12/09 01:55:08;;;;;;;18.35;11.13;;;1.40;99.90;;;;;;5101976;28;20048;-52
2021/12/09 01:57:34;;;;;;;17.55;10.30;;;1.30;99.90;;;;;;5102737;28;20174;-52
2021/12/09 02:00:00;;;;;;;17.25;9.48;;;1.40;99.90;;;;;;5100618;28;20447;-52
2021/12/09 02:02:25;;;;;;;17.85;9.55;;;1.40;99.90;;;;;;5102300;28;20069;-53
2021/12/09 02:04:51;;;;;;;17.02;9.82;;;1.30;99.90;;;;;;5101528;28;20040;-51
2021/12/09 02:07:17;;;;;;;18.17;10.90;;;1.30;99.90;;;;;;5102162;28;20069;-50
2021/12/09 02:09:43;;;;;;;18.55;10.75;;;1.30;99.90;;;;;;5102090;28;20408;-50
2021/12/09 02:12:11;;;;;;;15.27;9.65;;;1.30;99.90;;;;;;5101541;28;20044;-51
2021/12/09 02:14:41;;;;;;;18.08;9.93;;;1.30;99.90;;;;;;5101770;28;20040;-53
2021/12/09 02:17:07;;;;;;;19.10;10.50;;;1.30;99.90;;;;;;5100005;28;20716;-50
2021/12/09 02:19:33;;;;;;;19.17;10.90;;;1.30;99.90;;;;;;5101936;28;20032;-52
2021/12/09 02:22:00;;;;;;;20.88;11.23;;;1.30;99.90;;;;;;5101267;28;20032;-47
2021/12/09 02:24:26;;;;;;;20.35;10.95;;;1.30;99.90;;;;;;5101709;28;20047;-52
2021/12/09 02:26:52;;;;;;;19.58;10.25;;;1.30;99.90;;;;;;5101762;28;20540;-53
2021/12/09 02:29:19;;;;;;;17.02;10.52;;;1.20;99.90;;;;;;5101415;28;20036;-51
2021/12/09 02:31:46;;;;;;;20.65;10.32;;;1.20;99.90;;;;;;5102000;28;20048;-53
2021/12/09 02:34:12;;;;;;;20.48;10.48;;;1.30;99.90;;;;;;5101218;28;20032;-49
2021/12/09 02:36:40;;;;;;;21.80;11.13;;;1.20;99.90;;;;;;5101459;28;20074;-52
2021/12/09 02:39:10;;;;;;;18.10;10.68;;;1.30;99.90;;;;;;5100746;28;20542;-50
2021/12/09 02:41:37;;;;;;;19.35;11.07;;;1.20;99.90;;;;;;5101535;28;20040;-49
2021/12/09 02:44:06;;;;;;;24.23;11.55;;;1.20;99.90;;;;;;5101261;28;20039;-51
2021/12/09 02:46:36;;;;;;;20.90;10.15;;;1.20;99.90;;;;;;5100925;28;20070;-50
2021/12/09 02:49:08;;;;;;;18.83;11.52;;;1.20;99.90;;;;;;5101372;28;20507;-52
2021/12/09 02:51:35;;;;;;;;;;;1.10;99.90;;;;;;5091314;28;20094;-49
2021/12/09 02:54:00;;;;;;;18.33;10.55;;;1.20;99.90;;;;;;5080748;28;19920;-54
2021/12/09 02:56:26;;;;;;;22.15;12.10;;;1.20;99.90;;;;;;5080430;28;20068;-52
2021/12/09 02:58:52;;;;;;;19.30;10.90;;;1.10;99.90;;;;;;5079430;28;20040;-49
2021/12/09 03:01:25;;;;;;;19.75;11.23;;;1.20;99.90;;;;;;5081035;28;20045;-53
2021/12/09 03:03:58;;;;;;;19.50;11.57;;;1.20;99.90;;;;;;5080265;28;20094;-50
2021/12/09 03:06:37;;;;;;;19.23;11.15;;;1.20;99.90;;;;;;5080818;28;20059;-53
2021/12/09 03:09:07;;;;;;;19.80;11.65;;;1.10;99.90;;;;;;5079928;28;20044;-53
2021/12/09 03:11:33;;;;;;;16.33;10.55;;;1.10;99.90;;;;;;5080549;28;20051;-53
2021/12/09 03:14:01;;;;;;;18.25;10.43;;;1.10;99.90;;;;;;5080156;28;20052;-52
2021/12/09 03:16:26;;;;;;;19.10;11.20;;;1.00;99.90;;;;;;5078730;28;20052;-49
2021/12/09 03:18:56;;;;;;;18.13;10.85;;;1.10;99.90;;;;;;5079424;28;20059;-50
2021/12/09 03:21:25;;;;;;;22.88;11.00;;;1.00;99.90;;;;;;5080029;28;20068;-49
2021/12/09 03:23:52;;;;;;;20.50;11.13;;;1.00;99.90;;;;;;5080532;28;20037;-51
2021/12/09 03:26:25;;;;;;;21.48;11.50;;;1.00;99.90;;;;;;5078545;28;20037;-49
2021/12/09 03:28:55;;;;;;;19.40;11.80;;;1.00;99.90;;;;;;5080377;28;20041;-50
2021/12/09 03:31:21;;;;;;;22.52;11.40;;;1.00;99.90;;;;;;5080240;28;20102;-48
2021/12/09 03:33:47;;;;;;;19.55;11.60;;;1.00;99.90;;;;;;5079886;28;20044;-49
2021/12/09 03:36:13;;;;;;;21.20;11.25;;;1.00;99.90;;;;;;5080346;28;20078;-49
2021/12/09 03:38:40;;;;;;;22.63;11.60;;;1.00;99.90;;;;;;5079595;28;20044;-51
2021/12/09 03:41:06;;;;;;;20.27;11.77;;;1.00;99.90;;;;;;5079949;28;20078;-50
2021/12/09 03:43:32;;;;;;;21.83;12.30;;;1.00;99.90;;;;;;5079232;28;20052;-49
2021/12/09 03:45:58;;;;;;;18.40;11.23;;;0.90;99.90;;;;;;5079536;28;20048;-50
2021/12/09 03:48:27;;;;;;;19.25;11.75;;;1.00;99.90;;;;;;5080152;28;20083;-52
2021/12/09 03:50:53;;;;;;;23.48;11.77;;;0.90;99.90;;;;;;5083401;28;20035;-50
2021/12/09 03:53:19;;;;;;;19.98;11.93;;;0.90;99.90;;;;;;5098812;28;20043;-50
2021/12/09 03:55:46;;;;;;;19.48;11.60;;;0.90;99.90;;;;;;5099372;28;20044;-51
2021/12/09 03:58:12;;;;;;;21.10;12.00;;;0.90;99.90;;;;;;5100139;28;20051;-52
2021/12/09 04:00:38;;;;;;;19.23;11.35;;;0.90;99.90;;;;;;5099271;28;20099;-50
2021/12/09 04:03:03;;;;;;;21.27;11.75;;;0.90;99.90;;;;;;5099927;28;20075;-52
2021/12/09 04:05:29;;;;;;;20.20;11.27;;;1.00;99.90;;;;;;5099990;28;20032;-52
2021/12/09 04:07:55;;;;;;;24.10;11.93;;;0.90;99.90;;;;;;5099520;28;20070;-49
2021/12/09 04:10:22;;;;;;;17.60;11.90;;;0.90;99.90;;;;;;5099626;28;20070;-49
2021/12/09 04:12:47;;;;;;;24.10;12.05;;;0.90;99.90;;;;;;5098929;28;20051;-51
2021/12/09 04:15:13;;;;;;;19.85;11.82;;;0.90;99.90;;;;;;5099614;28;20048;-51
2021/12/09 04:17:39;;;;;;;22.85;12.27;;;0.80;99.90;;;;;;5097552;28;20499;-48
2021/12/09 04:20:07;;;;;;;21.05;11.10;;;0.90;99.90;;;;;;5099298;28;20058;-52
2021/12/09 04:22:33;;;;;;;19.27;11.43;;;0.90;99.90;;;;;;5099612;28;20125;-50
2021/12/09 04:25:00;;;;;;;22.33;12.13;;;0.90;99.90;;;;;;5099021;28;20046;-49
2021/12/09 04:27:25;;;;;;;19.52;11.27;;;0.80;99.90;;;;;;5099731;28;20044;-51
2021/12/09 04:29:52;;;;;;;21.20;12.23;;;0.90;99.90;;;;;;5097653;28;20044;-48
2021/12/09 04:32:19;;;;;;;19.27;11.73;;;0.90;99.90;;;;;;5099519;28;20388;-49
2021/12/09 04:34:45;;;;;;;21.30;11.50;;;0.90;99.90;;;;;;5098805;28;20051;-48
2021/12/09 04:37:11;;;;;;;19.92;11.32;;;0.90;99.90;;;;;;5099006;28;20052;-50
2021/12/09 04:39:37;;;;;;;18.35;11.38;;;0.90;99.90;;;;;;5099171;28;20040;-48
2021/12/09 04:42:04;;;;;;;18.73;11.73;;;0.80;99.90;;;;;;5098641;28;20054;-48
2021/12/09 04:44:30;;;;;;;18.33;11.27;;;0.80;99.90;;;;;;5099228;28;20043;-49
2021/12/09 04:46:56;;;;;;;19.83;11.95;;;0.80;99.90;;;;;;5097055;28;20055;-48
2021/12/09 04:49:22;;;;;;;23.75;12.43;;;0.80;99.90;;;;;;5099352;28;20189;-49
2021/12/09 04:51:48;;;;;;;21.13;11.77;;;0.70;99.90;;;;;;5086521;28;20076;-51
2021/12/09 04:54:14;;;;;;;21.83;10.95;;;0.70;99.90;;;;;;5078893;28;20524;-51
2021/12/09 04:56:40;;;;;;;18.73;12.18;;;0.70;99.90;;;;;;5076972;28;20048;-48
2021/12/09 04:59:06;;;;;;;23.38;12.68;;;0.80;99.90;;;;;;5078329;28;20461;-49
2021/12/09 05:01:33;;;;;;;20.08;11.85;;;0.80;99.90;;;;;;5079052;28;20037;-52
2021/12/09 05:03:59;;;;;;;24.23;11.80;;;0.70;99.90;;;;;;5078187;28;20078;-51
2021/12/09 05:06:26;;;;;;;19.73;12.45;;;0.70;99.90;;;;;;5078638;28;20125;-52
2021/12/09 05:08:52;;;;;;;18.05;11.82;;;0.70;99.90;;;;;;5076631;28;20059;-52
2021/12/09 05:13:58;;;;;;;20.55;11.93;;;0.70;99.90;;;;;;5078401;28;20045;-51
2021/12/09 05:16:25;;;;;;;20.13;11.70;;;0.70;99.90;;;;;;5077882;28;20517;-50
2021/12/09 05:18:57;;;;;;;19.25;11.73;;;0.70;99.90;;;;;;5078913;28;20076;-51
2021/12/09 05:21:23;;;;;;;18.63;12.32;;;0.70;99.90;;;;;;5077447;28;20056;-48
2021/12/09 05:23:49;;;;;;;19.52;11.77;;;0.60;99.90;;;;;;5078643;28;20124;-51
2021/12/09 05:26:18;;;;;;;20.17;12.05;;;0.60;99.90;;;;;;5077852;28;20076;-52
2021/12/09 05:28:44;;;;;;;21.73;12.95;;;0.60;99.90;;;;;;5078349;28;20054;-52
2021/12/09 05:33:56;;;;;;;21.67;13.00;;;0.60;99.90;;;;;;5076422;28;20044;-49
2021/12/09 05:36:21;;;;;;;22.80;12.23;;;0.60;99.90;;;;;;5078341;28;20051;-50
2021/12/09 05:38:47;;;;;;;23.42;12.30;;;0.60;99.90;;;;;;5077771;28;20044;-53
2021/12/09 05:41:13;;;;;;;19.92;12.40;;;0.60;99.90;;;;;;5078190;28;20055;-50
2021/12/09 05:43:39;;;;;;;21.67;11.80;;;0.60;99.90;;;;;;5077706;28;20106;-49
2021/12/09 05:46:05;;;;;;;20.55;12.52;;;0.60;99.90;;;;;;5077839;28;20079;-49
2021/12/09 05:48:31;;;;;;;22.35;12.57;;;0.60;99.90;;;;;;5077266;28;20048;-49
2021/12/09 05:50:57;;;;;;;18.92;12.50;;;0.60;99.90;;;;;;5082164;28;20048;-49
2021/12/09 05:53:23;;;;;;;25.38;12.55;;;0.60;99.90;;;;;;5098525;28;20082;-51
2021/12/09 05:55:49;;;;;;;24.05;12.90;;;0.60;99.90;;;;;;5097867;28;20496;-52
2021/12/09 05:58:17;;;;;;;29.90;13.20;;;0.60;99.90;;;;;;5096934;28;20058;-51
2021/12/09 06:00:44;;;;;;;23.25;12.90;;;0.60;99.90;;;;;;5098020;28;20041;-51
2021/12/09 06:03:09;;;;;;;19.23;12.23;;;0.50;99.90;;;;;;5098035;28;20065;-51
2021/12/09 06:05:35;;;;;;;23.75;12.82;;;0.50;99.90;;;;;;5098381;28;20055;-51
2021/12/09 06:08:02;;;;;;;20.45;12.95;;;0.60;99.90;;;;;;5097852;28;20091;-51
2021/12/09 06:10:28;;;;;;;21.17;12.93;;;0.60;99.90;;;;;;5098351;28;20063;-51
2021/12/09 06:12:54;;;;;;;20.98;11.18;;;0.60;99.90;;;;;;5097354;28;20044;-53
2021/12/09 06:15:20;;;;;;;18.27;11.00;;;0.50;99.90;;;;;;5098076;28;20082;-49
2021/12/09 06:17:46;;;;;;;22.10;12.77;;;0.60;99.90;;;;;;5097398;28;20040;-50
2021/12/09 06:20:12;;;;;;;22.55;11.43;;;0.60;99.90;;;;;;5097965;28;20097;-50
2021/12/09 06:22:38;;;;;;;20.85;12.55;;;0.60;99.90;;;;;;5098061;28;20037;-51
2021/12/09 06:25:05;;;;;;;23.40;12.52;;;0.60;99.90;;;;;;5097707;28;20048;-51
2021/12/09 06:27:30;;;;;;;22.85;11.43;;;0.60;99.90;;;;;;5098254;28;20075;-50
2021/12/09 06:29:56;;;;;;;20.80;12.05;;;0.60;99.90;;;;;;5097320;28;20058;-50
2021/12/09 06:32:22;;;;;;;20.20;11.45;;;0.70;99.90;;;;;;5098507;28;20609;-52
2021/12/09 06:34:48;;;;;;;20.35;12.25;;;0.70;99.90;;;;;;5099459;28;20057;-51
2021/12/09 06:37:14;;;;;;;20.10;11.23;;;0.60;99.90;;;;;;5101450;28;20080;-51
2021/12/09 06:39:39;;;;;;;23.33;13.38;;;0.70;99.90;;;;;;5101713;28;20043;-49
2021/12/09 06:42:06;;;;;;;28.38;12.70;;;0.70;99.90;;;;;;5101115;28;20075;-50
2021/12/09 06:44:32;;;;;;;21.35;11.38;;;0.70;99.90;;;;;;5101569;28;20036;-50
2021/12/09 06:46:58;;;;;;;25.85;11.75;;;0.70;99.90;;;;;;5100898;28;20090;-51
2021/12/09 06:49:24;;;;;;;20.27;11.25;;;0.70;99.90;;;;;;5101445;28;20032;-52
2021/12/09 06:51:51;;;;;;;22.90;11.15;;;0.60;99.90;;;;;;5088651;28;20040;-50
2021/12/09 06:54:17;;;;;;;20.80;11.68;;;0.60;99.90;;;;;;5080963;28;20345;-50
2021/12/09 06:56:43;;;;;;;20.15;11.57;;;0.60;99.90;;;;;;5080847;28;20090;-52
2021/12/09 06:59:08;;;;;;;21.52;12.35;;;0.60;99.90;;;;;;5080538;28;20040;-53
2021/12/09 07:01:35;;;;;;;24.40;12.38;;;0.60;99.90;;;;;;5080012;28;20082;-52
2021/12/09 07:04:02;;;;;;;19.05;11.50;;;0.60;99.90;;;;;;5080186;28;20059;-52
2021/12/09 07:06:28;;;;;;;23.50;12.85;;;0.60;99.90;;;;;;5081028;28;20212;-54
2021/12/09 07:08:56;;;;;;;22.80;11.35;;;0.60;99.90;;;;;;5079896;28;20049;-52
2021/12/09 07:11:22;;;;;;;26.02;12.50;;;0.60;99.90;;;;;;5080530;28;20583;-51
2021/12/09 07:13:48;;;;;;;22.33;12.68;;;0.50;99.90;;;;;;5080289;28;20036;-53
2021/12/09 07:16:14;;;;;;;25.10;14.00;;;0.50;99.90;;;;;;5080185;28;20060;-52
2021/12/09 07:18:40;;;;;;;21.95;13.57;;;0.50;99.90;;;;;;5080711;28;20096;-51
2021/12/09 07:21:06;;;;;;;21.20;11.77;;;0.40;99.90;;;;;;5079867;28;20049;-50
2021/12/09 07:23:33;;;;;;;23.63;12.20;;;0.40;99.90;;;;;;5080570;28;20041;-51
2021/12/09 07:25:59;;;;;;;20.55;11.98;;;0.40;99.90;;;;;;5079834;28;20083;-52
2021/12/09 07:28:24;;;;;;;25.50;12.68;;;0.30;99.90;;;;;;5078999;28;20036;-51
2021/12/09 07:30:51;;;;;;;23.02;12.95;;;0.40;99.90;;;;;;5079920;28;20109;-55
2021/12/09 07:33:17;;;;;;;19.48;12.70;;;0.30;99.90;;;;;;5080118;28;20090;-54
2021/12/09 07:35:43;;;;;;;23.08;13.23;;;0.30;99.90;;;;;;5080476;28;20041;-52
2021/12/09 07:38:10;;;;;;;25.05;12.55;;;0.30;99.90;;;;;;5078227;28;20044;-50
2021/12/09 07:40:37;;;;;;;22.58;12.65;;;0.30;99.90;;;;;;5080134;28;20106;-50
2021/12/09 07:43:03;;;;;;;19.40;12.35;;;0.40;99.90;;;;;;5079238;28;20062;-49
2021/12/09 07:45:30;;;;;;;22.40;13.30;;;0.40;99.90;;;;;;5079027;28;20053;-54
2021/12/09 07:47:56;;;;;;;21.85;12.30;;;0.30;99.90;;;;;;5079796;28;20037;-52
2021/12/09 07:50:23;;;;;;;21.70;12.25;;;0.40;99.90;;;;;;5079659;28;20057;-50
2021/12/09 07:52:51;;;;;;;21.50;12.15;;;0.30;99.90;;;;;;5059984;28;20045;-53
2021/12/09 07:55:18;;;;;;;26.50;12.60;;;0.30;99.90;;;;;;5059164;28;20045;-50
2021/12/09 07:57:44;;;;;;;22.58;12.48;;;0.40;99.90;;;;;;5059909;28;20037;-53
2021/12/09 08:00:13;;;;;;;26.55;14.00;;;0.40;99.90;;;;;;5059041;28;20087;-57
2021/12/09 08:02:41;;;;;;;27.55;14.10;;;0.30;99.90;;;;;;5059849;28;20621;-50
2021/12/09 08:05:08;;;;;;;27.52;13.00;;;0.40;99.90;;;;;;5059452;28;20052;-49
2021/12/09 08:07:34;;;;;;;29.13;14.43;;;0.30;99.90;;;;;;5057828;28;20505;-53
2021/12/09 08:10:00;;;;;;;25.05;13.45;;;0.30;99.90;;;;;;5059813;28;20045;-49
2021/12/09 08:12:25;;;;;;;24.35;13.55;;;0.40;99.90;;;;;;5058994;28;20053;-50
2021/12/09 08:14:51;;;;;;;25.52;12.98;;;0.40;99.90;;;;;;5059043;28;20109;-52
2021/12/09 08:20:08;;;;;;;26.98;13.50;;;0.40;99.90;;;;;;5058026;28;20048;-53
2021/12/09 08:22:34;;;;;;;23.90;13.52;;;0.10;99.90;;;;;;5059434;28;20527;-50
2021/12/09 08:25:00;;;;;;;22.42;12.32;;;0.50;99.90;;;;;;5057740;28;20049;-49
2021/12/09 08:27:27;;;;;;;26.05;13.30;;;0.40;99.90;;;;;;5059433;28;20382;-53
2021/12/09 08:29:53;;;;;;;23.50;13.13;;;0.40;99.90;;;;;;5058804;28;20519;-53
2021/12/09 08:32:18;;;;;;;26.30;14.38;;;0.50;99.90;;;;;;5059032;28;20045;-55
2021/12/09 08:34:44;;;;;;;27.98;13.32;;;0.50;99.90;;;;;;5058556;28;20076;-53
2021/12/09 08:37:11;;;;;;;22.55;13.27;;;0.60;99.90;;;;;;5058793;28;20124;-52
2021/12/09 08:39:37;;;;;;;23.30;13.15;;;0.60;99.90;;;;;;5058849;28;20041;-53
2021/12/09 08:42:03;;;;;;;25.92;12.40;;;0.70;99.90;;;;;;5058641;28;20048;-53
2021/12/09 08:44:29;;;;;;;26.65;12.73;;;0.70;99.90;;;;;;5058904;28;20686;-54
2021/12/09 08:46:55;;;;;;;27.80;12.75;;;0.70;99.90;;;;;;5058377;28;20048;-51
2021/12/09 08:49:20;;;;;;;24.75;13.40;;;0.70;99.90;;;;;;5058902;28;20152;-52
2021/12/09 08:51:46;;;;;;;22.42;12.65;;;0.70;99.90;;;;;;5081097;28;20043;-54
2021/12/09 08:54:13;;;;;;;28.48;12.55;;;0.70;99.90;;;;;;5097140;28;20037;-51
2021/12/09 08:56:38;;;;;;;27.45;12.85;;;0.80;99.90;;;;;;5098049;28;20570;-51
2021/12/09 08:59:06;;;;;;;23.30;13.35;;;0.80;99.90;;;;;;5098658;28;20040;-53
2021/12/09 09:01:33;;;;;;;26.10;12.75;;;0.80;99.90;;;;;;5099249;28;20032;-53
2021/12/09 09:04:00;;;;;;;28.17;13.75;;;0.90;99.90;;;;;;5098568;28;20040;-53
2021/12/09 09:06:26;;;;;;;24.42;12.90;;;1.00;99.90;;;;;;5098945;28;20219;-53
2021/12/09 09:08:57;;;;;;;23.55;13.43;;;1.00;99.90;;;;;;5098106;28;20044;-52
2021/12/09 09:11:23;;;;;;;23.95;13.32;;;0.90;99.90;;;;;;5098574;28;20052;-53
2021/12/09 09:13:49;;;;;;;23.48;12.73;;;1.00;99.90;;;;;;5098612;28;20066;-51
2021/12/09 09:16:15;;;;;;;29.88;15.18;;;1.00;99.90;;;;;;5098351;28;20048;-53
2021/12/09 09:18:41;;;;;;;26.33;12.45;;;1.10;99.90;;;;;;5099114;28;20047;-54
2021/12/09 09:21:07;;;;;;;22.63;12.38;;;1.10;99.90;;;;;;5098010;28;20528;-50
2021/12/09 09:23:33;;;;;;;24.55;12.45;;;1.10;99.90;;;;;;5098659;28;20054;-53
2021/12/09 09:25:58;;;;;;;22.50;12.60;;;1.10;99.90;;;;;;5097881;28;20036;-51
2021/12/09 09:28:24;;;;;;;23.33;11.98;;;1.20;99.90;;;;;;5098627;28;20450;-50
2021/12/09 09:30:53;;;;;;;25.92;12.52;;;1.10;99.90;;;;;;5098332;28;20036;-53
2021/12/09 09:33:21;;;;;;;24.05;11.43;;;1.20;99.90;;;;;;5098302;28;20044;-50
2021/12/09 09:35:48;;;;;;;23.42;13.63;;;1.30;99.90;;;;;;5098631;28;20040;-53
2021/12/09 09:38:15;;;;;;;23.17;11.13;;;1.30;99.90;;;;;;5097829;28;20048;-50
2021/12/09 09:41:09;;;;;;;23.23;11.77;;;1.30;99.90;;;;;;5098557;28;20121;-53
2021/12/09 09:43:57;;;;;;;27.42;12.02;;;1.40;99.90;;;;;;5098090;28;20048;-50
2021/12/09 09:46:26;;;;;;;27.13;11.90;;;1.40;99.90;;;;;;5097762;28;20056;-50
2021/12/09 09:48:55;;;;;;;21.70;10.73;;;1.50;99.90;;;;;;5098532;28;20051;-51
2021/12/09 09:51:24;;;;;;;24.42;11.45;;;1.50;99.90;;;;;;5089930;28;20400;-50
2021/12/09 09:53:50;;;;;;;22.73;10.48;;;1.90;99.90;;;;;;5078165;28;20515;-53
2021/12/09 09:56:19;;;;;;;20.80;10.85;;;1.60;99.90;;;;;;5077712;28;20400;-49
2021/12/09 09:58:52;;;;;;;21.48;11.75;;;1.60;99.90;;;;;;5078104;28;20121;-49
2021/12/09 10:01:19;;;;;;;19.20;10.18;;;1.60;99.90;;;;;;5078266;28;20045;-49
2021/12/09 10:03:47;;;;;;;20.88;10.40;;;1.70;99.90;;;;;;5077608;28;20064;-53
2021/12/09 10:06:14;;;;;;;20.55;10.30;;;1.80;99.90;;;;;;5076377;28;20060;-49
2021/12/09 10:08:40;;;;;;;22.75;10.07;;;1.80;99.90;;;;;;5079907;28;20051;-52
2021/12/09 10:11:07;;;;;;;26.65;10.18;;;1.80;99.90;;;;;;5081839;28;20072;-50
2021/12/09 10:13:36;;;;;;;29.50;11.48;;;1.90;99.90;;;;;;5081512;28;20536;-50
2021/12/09 10:16:05;;;;;;;21.20;11.27;;;1.90;99.90;;;;;;5081414;28;20501;-50
2021/12/09 10:18:43;;;;;;;23.48;10.73;;;1.90;99.90;;;;;;5082037;28;20539;-49
2021/12/09 10:21:12;;;;;;;21.35;9.98;;;2.00;99.90;;;;;;5079721;28;20052;-49
2021/12/09 10:23:48;;;;;;;22.02;11.73;;;2.00;99.90;;;;;;5081645;28;20029;-50
2021/12/09 10:26:22;;;;;;;21.35;10.55;;;2.10;99.90;;;;;;5080893;28;20083;-48
2021/12/09 10:28:55;;;;;;;19.70;10.65;;;2.10;99.90;;;;;;5081363;28;20041;-52
2021/12/09 10:31:29;;;;;;;18.45;10.70;;;2.10;99.90;;;;;;5081632;28;20048;-53
2021/12/09 10:34:11;;;;;;;21.23;9.88;;;2.10;99.90;;;;;;5081049;28;20090;-49
2021/12/09 10:36:51;;;;;;;21.60;9.68;;;2.20;99.90;;;;;;5081104;28;20072;-52
2021/12/09 10:39:22;;;;;;;19.50;10.35;;;2.20;99.90;;;;;;5081125;28;20570;-49
2021/12/09 10:41:49;;;;;;;23.60;10.95;;;2.20;99.90;;;;;;5080827;28;20044;-49
2021/12/09 10:44:15;;;;;;;21.95;11.00;;;2.30;99.90;;;;;;5081039;28;20512;-53
2021/12/09 10:46:56;;;;;;;20.73;11.00;;;2.40;99.90;;;;;;5078776;28;20121;-51
2021/12/09 10:49:22;;;;;;;24.20;11.35;;;2.40;99.90;;;;;;5081130;28;20051;-52
2021/12/09 10:51:57;;;;;;;23.08;11.68;;;2.40;99.90;;;;;;5092272;28;20044;-52
2021/12/09 10:54:36;;;;;;;23.10;12.95;;;2.40;99.90;;;;;;5101146;28;20150;-53
2021/12/09 10:57:31;;;;;;;17.60;10.88;;;2.40;99.90;;;;;;5100002;28;20078;-49
2021/12/09 11:00:13;;;;;;;22.88;11.90;;;2.50;99.90;;;;;;5100625;28;20059;-52
2021/12/09 11:03:00;;;;;;;19.48;11.73;;;2.60;99.90;;;;;;5099799;28;20092;-52
2021/12/09 11:05:26;;;;;;;22.55;11.95;;;2.50;99.90;;;;;;5101162;28;20042;-52
2021/12/09 11:07:52;;;;;;;25.48;14.30;;;2.60;99.90;;;;;;5100617;28;20487;-50
2021/12/09 11:10:23;;;;;;;21.30;11.88;;;2.50;99.90;;;;;;5101212;28;20102;-50
2021/12/09 11:12:56;;;;;;;24.20;12.68;;;2.60;99.90;;;;;;5100177;28;20102;-49
2021/12/09 11:15:44;;;;;;;23.58;12.60;;;2.60;99.90;;;;;;5100825;28;20048;-51
2021/12/09 11:18:35;;;;;;;21.58;11.82;;;2.60;99.90;;;;;;5100922;28;20101;-48
2021/12/09 11:21:05;;;;;;;22.50;12.45;;;2.70;99.90;;;;;;5099594;28;20047;-51
2021/12/09 11:23:56;;;;;;;23.48;13.55;;;2.60;99.90;;;;;;5100829;28;20036;-51
2021/12/09 11:26:28;;;;;;;25.83;12.98;;;2.60;99.90;;;;;;5100223;28;20637;-52
2021/12/09 11:28:58;;;;;;;;;;;2.50;99.90;;;;;;5100976;28;20052;-53
2021/12/09 11:31:27;;;;;;;24.02;11.35;;;2.60;99.90;;;;;;5100918;28;19924;-50
2021/12/09 11:34:09;;;;;;;22.92;12.27;;;2.60;99.90;;;;;;5100217;28;20048;-53
2021/12/09 11:36:41;;;;;;;21.05;11.27;;;2.60;99.90;;;;;;5100222;28;20046;-53
2021/12/09 11:39:11;;;;;;;29.88;11.35;;;2.60;99.90;;;;;;5100003;28;20048;-50
2021/12/09 11:41:39;;;;;;;26.10;13.15;;;2.60;99.90;;;;;;5100211;28;20036;-48
2021/12/09 11:44:08;;;;;;;28.92;12.63;;;2.60;99.90;;;;;;5100365;28;20075;-51
2021/12/09 11:46:38;;;;;;;23.75;12.40;;;2.50;99.90;;;;;;5099641;28;20063;-49
2021/12/09 11:49:04;;;;;;;28.20;13.02;;;2.50;99.90;;;;;;5100184;28;20052;-53
2021/12/09 11:51:31;;;;;;;29.15;12.63;;;2.50;99.90;;;;;;5088989;28;20098;-51
2021/12/09 11:54:03;;;;;;;26.38;12.75;;;2.60;99.90;;;;;;5079882;28;20067;-49
2021/12/09 12:06:37;;;;;;;29.02;13.57;;;2.60;99.90;;;;;;5079288;28;20503;-52
2021/12/09 12:11:23;;;;;;;27.48;13.93;;;2.60;99.90;;;;;;5079472;28;20045;-51
2021/12/09 12:13:55;;;;;;;33.10;14.43;;;2.70;99.90;;;;;;5078941;28;20148;-49
2021/12/09 12:16:39;;;;;;;35.42;13.73;;;2.60;99.90;;;;;;5078596;28;20467;-51
2021/12/09 12:19:15;;;;;;;26.10;14.40;;;2.60;99.90;;;;;;5079358;28;20040;-53
2021/12/09 12:27:29;;;;;;;26.40;14.18;;;2.70;99.90;;;;;;5079605;28;20099;-51
2021/12/09 12:38:33;;;;;;;32.35;16.00;;;2.60;99.90;;;;;;5078359;28;20032;-51
2021/12/09 12:41:14;;;;;;;30.42;13.20;;;2.70;99.90;;;;;;5078848;28;20041;-52
2021/12/09 12:43:50;;;;;;;28.17;13.43;;;2.70;99.90;;;;;;5077186;28;20574;-51
2021/12/09 12:46:40;;;;;;;25.23;12.82;;;2.70;99.90;;;;;;5077173;28;20048;-48
2021/12/09 12:49:29;;;;;;;29.48;13.88;;;2.80;99.90;;;;;;5078790;28;20052;-51
2021/12/09 12:52:08;;;;;;;28.40;15.43;;;2.80;99.90;;;;;;5091177;28;20044;-51
2021/12/09 12:57:16;;;;;;;33.08;14.82;;;2.80;99.90;;;;;;5099255;28;20040;-52
2021/12/09 12:59:59;;;;;;;33.00;14.80;;;2.80;99.90;;;;;;5098363;28;20071;-49
2021/12/09 13:16:15;;;;;;;37.78;17.40;;;2.90;99.90;;;;;;5098509;28;20489;-52
2021/12/09 13:18:45;;;;;;;32.50;14.50;;;3.00;99.90;;;;;;5097798;28;20332;-54
2021/12/09 13:21:36;;;;;;;32.05;15.45;;;3.00;99.90;;;;;;5098139;28;20052;-50
2021/12/09 13:24:22;;;;;;;34.60;17.33;;;3.10;99.90;;;;;;5098435;28;20418;-50
2021/12/09 13:27:10;;;;;;;34.58;17.88;;;3.10;99.90;;;;;;5098901;28;20889;-49
2021/12/09 13:30:06;;;;;;;29.30;15.55;;;3.10;99.90;;;;;;5098009;28;20051;-52
2021/12/09 13:46:56;;;;;;;33.38;16.13;;;3.10;99.90;;;;;;5102149;28;20107;-49
2021/12/09 13:49:41;;;;;;;27.15;15.05;;;3.50;99.90;;;;;;5100971;28;20066;-53
2021/12/09 13:55:05;;;;;;;33.00;16.17;;;3.10;99.90;;;;;;5081455;28;20629;-50